Arena, Wisconsin
Current Conditions -  °F | °C
As of 5:56 AM on Monday 20 Oct 2014 (Local Time) from KLNR Reporting Station
Clear Clear  
Wind Chill: 54°   Ceiling: Unl
Heat Index: 54°   Visibility: 10mi
Dew Point: 43°   Wind: 14mph
Humidity: 66%   Direction: 300°WNW
Pressure: 29.85"   Gusts: NA
Location:  43.17°N, 89.91°W
Report Text: KLNR 201056Z AUTO 30012KT 10SM CLR 12/06 A2985 RMK AO2 SLP101 T01220061
Loading
Personal Weather Stations






























Interactive Weather Map
Tropical Storm Tracking
New forecast layout! Learn more

10-Day Weather Forecast

Advertisements
Track Severe Weather on mobile